createdAt,value
2022-08-16T00:01:46.560Z,100413.88
2022-08-16T00:06:48.674Z,100409.56
2022-08-16T00:11:52.770Z,100422.72
2022-08-16T00:17:15.954Z,100423.78
2022-08-16T00:22:21.056Z,100419.38
2022-08-16T00:27:27.007Z,100418.38
2022-08-16T00:32:33.158Z,100427.03
2022-08-16T00:37:58.830Z,100425.31
2022-08-16T00:42:57.115Z,100425.16
2022-08-16T00:47:58.877Z,100432.03
2022-08-16T00:53:00.768Z,100426.53
2022-08-16T00:58:12.777Z,100430.28
2022-08-16T01:03:20.596Z,100432.38
2022-08-16T01:08:36.793Z,100431.31
2022-08-16T01:13:39.836Z,100435.81
2022-08-16T01:18:53.303Z,100429.44
2022-08-16T01:24:51.984Z,100431.13
2022-08-16T01:29:59.574Z,100420.78
2022-08-16T01:35:07.740Z,100410.13
2022-08-16T01:40:11.441Z,100417.78
2022-08-16T01:45:14.783Z,100418.28
2022-08-16T01:50:42.245Z,100415.00
2022-08-16T01:55:53.886Z,100421.69
2022-08-16T02:00:57.650Z,100424.69
2022-08-16T02:05:59.802Z,100422.56
2022-08-16T02:11:08.670Z,100425.06
2022-08-16T02:16:18.492Z,100419.66
2022-08-16T02:21:31.299Z,100410.47
2022-08-16T02:26:34.446Z,100403.00
2022-08-16T02:32:03.881Z,100398.09
2022-08-16T02:36:58.801Z,100398.41
2022-08-16T02:42:00.546Z,100393.84
2022-08-16T02:47:02.538Z,100391.03
2022-08-16T02:52:05.035Z,100386.88
2022-08-16T02:57:11.365Z,100393.75
2022-08-16T03:02:13.576Z,100398.59
2022-08-16T03:07:27.533Z,100398.94
2022-08-16T03:12:55.645Z,100398.41
2022-08-16T03:17:54.247Z,100386.22
2022-08-16T03:22:58.520Z,100390.63
2022-08-16T03:28:07.927Z,100400.34
2022-08-16T03:33:36.823Z,100401.47
2022-08-16T03:38:39.374Z,100410.78
2022-08-16T03:43:51.949Z,100411.28
2022-08-16T03:48:59.215Z,100408.56
2022-08-16T03:54:01.748Z,100420.06
2022-08-16T03:59:06.584Z,100416.53
2022-08-16T04:04:33.142Z,100414.56
2022-08-16T04:09:38.497Z,100410.59
2022-08-16T04:14:46.846Z,100415.41
2022-08-16T04:19:51.651Z,100415.84
2022-08-16T04:24:59.334Z,100430.06
2022-08-16T04:30:11.004Z,100429.53
2022-08-16T04:35:22.804Z,100435.81
2022-08-16T04:40:27.484Z,100438.50
2022-08-16T04:45:36.274Z,100441.88
2022-08-16T04:50:49.286Z,100446.53
2022-08-16T04:55:55.080Z,100449.25
2022-08-16T05:01:01.275Z,100443.78
2022-08-16T05:06:09.253Z,100454.88
2022-08-16T05:11:13.739Z,100452.69
2022-08-16T05:16:21.761Z,100454.47
2022-08-16T05:21:38.141Z,100452.50
2022-08-16T05:26:50.650Z,100457.41
2022-08-16T05:31:54.239Z,100473.34
2022-08-16T05:36:58.621Z,100476.75
2022-08-16T05:42:07.886Z,100488.16
2022-08-16T05:47:15.211Z,100488.56
2022-08-16T05:52:20.888Z,100494.34
2022-08-16T05:57:23.209Z,100505.03
2022-08-16T06:02:29.796Z,100495.38
2022-08-16T06:07:35.296Z,100506.88
2022-08-16T06:12:43.432Z,100504.38
2022-08-16T06:17:46.567Z,100513.44
2022-08-16T06:23:02.922Z,100520.13
2022-08-16T06:28:17.242Z,100522.16
2022-08-16T06:33:42.092Z,100519.78
2022-08-16T06:38:56.648Z,100518.16
2022-08-16T06:44:21.396Z,100513.06
2022-08-16T06:49:30.323Z,100528.31
2022-08-16T06:54:35.926Z,100528.97
2022-08-16T06:59:52.514Z,100521.59
2022-08-16T07:05:14.926Z,100534.81
2022-08-16T07:10:25.740Z,100531.63
2022-08-16T07:15:29.768Z,100530.34
2022-08-16T07:20:47.106Z,100531.44
2022-08-16T07:25:50.267Z,100543.31
2022-08-16T07:30:55.220Z,100542.19
2022-08-16T07:36:09.929Z,100539.59
2022-08-16T07:41:16.581Z,100546.13
2022-08-16T07:46:38.992Z,100538.09
2022-08-16T07:51:48.895Z,100550.78
2022-08-16T07:56:56.559Z,100561.84
2022-08-16T08:01:59.847Z,100564.81
2022-08-16T08:07:02.569Z,100568.06
2022-08-16T08:12:43.705Z,100565.63
2022-08-16T08:17:42.698Z,100573.78
2022-08-16T08:22:49.389Z,100579.69
2022-08-16T08:27:51.926Z,100579.56
2022-08-16T08:33:01.326Z,100583.81
2022-08-16T08:38:12.828Z,100586.44
2022-08-16T08:43:19.163Z,100577.59
2022-08-16T08:48:33.681Z,100578.78
2022-08-16T08:53:46.543Z,100599.03
2022-08-16T08:59:04.663Z,100610.00
2022-08-16T09:04:17.445Z,100615.28
2022-08-16T09:09:22.381Z,100626.78
2022-08-16T09:14:29.591Z,100630.81
2022-08-16T09:19:33.845Z,100646.34
2022-08-16T09:24:53.218Z,100639.31
2022-08-16T09:30:00.169Z,100640.97
2022-08-16T09:35:05.097Z,100646.69
2022-08-16T09:40:33.012Z,100650.28
2022-08-16T09:45:30.097Z,100659.19
2022-08-16T09:50:38.955Z,100658.41
2022-08-16T09:55:44.247Z,100656.47
2022-08-16T10:00:46.514Z,100651.16
2022-08-16T10:12:11.058Z,100666.66
2022-08-16T10:17:13.883Z,100668.63
2022-08-16T10:22:17.204Z,100664.22
2022-08-16T10:27:26.993Z,100665.06
2022-08-16T10:32:32.307Z,100667.09
2022-08-16T10:37:36.270Z,100675.81
2022-08-16T10:42:38.320Z,100682.81
2022-08-16T10:47:43.078Z,100694.38
2022-08-16T10:52:45.085Z,100700.31
2022-08-16T10:57:55.136Z,100695.72
2022-08-16T11:03:01.861Z,100702.78
2022-08-16T11:08:07.031Z,100709.56
2022-08-16T11:19:02.792Z,100719.50
2022-08-16T11:23:58.076Z,100727.34
2022-08-16T11:29:16.015Z,100739.16
2022-08-16T11:34:19.812Z,100731.91
2022-08-16T11:39:23.337Z,100735.88
2022-08-16T11:44:52.016Z,100739.56
2022-08-16T11:49:49.431Z,100753.94
2022-08-16T11:54:56.965Z,100758.47
2022-08-16T11:59:59.043Z,100767.41
2022-08-16T12:05:01.080Z,100769.31
2022-08-16T12:10:06.822Z,100769.00
2022-08-16T12:15:11.011Z,100771.28
2022-08-16T12:20:19.712Z,100761.16
2022-08-16T12:25:23.832Z,100761.72
2022-08-16T12:30:33.556Z,100778.06
2022-08-16T12:35:40.029Z,100774.16
2022-08-16T12:40:47.533Z,100787.44
2022-08-16T12:45:55.789Z,100789.97
2022-08-16T12:50:58.270Z,100791.69
2022-08-16T12:56:03.538Z,100803.56
2022-08-16T13:01:06.805Z,100804.34
2022-08-16T13:06:13.413Z,100809.16
2022-08-16T13:11:33.622Z,100810.28
2022-08-16T13:16:35.280Z,100804.34
2022-08-16T13:21:37.254Z,100803.25
2022-08-16T13:26:38.852Z,100816.75
2022-08-16T13:31:41.596Z,100810.00
2022-08-16T13:36:49.469Z,100802.41
2022-08-16T13:41:56.034Z,100804.63
2022-08-16T13:46:57.807Z,100797.22
2022-08-16T13:51:59.481Z,100805.31
2022-08-16T13:57:01.873Z,100799.97
2022-08-16T14:02:07.204Z,100799.50
2022-08-16T14:07:20.061Z,100810.78
2022-08-16T14:12:30.215Z,100805.97
2022-08-16T14:18:15.967Z,100803.19
2022-08-16T14:22:55.003Z,100806.31
2022-08-16T14:27:57.396Z,100795.31
2022-08-16T14:33:00.170Z,100804.06
2022-08-16T14:38:01.948Z,100800.41
2022-08-16T14:43:07.349Z,100797.59
2022-08-16T14:48:09.238Z,100807.47
2022-08-16T14:53:11.200Z,100801.56
2022-08-16T15:04:04.059Z,100800.16
2022-08-16T15:14:56.908Z,100807.44
2022-08-16T15:20:01.243Z,100814.50
2022-08-16T15:25:07.602Z,100822.66
2022-08-16T15:30:57.748Z,100831.66
2022-08-16T15:35:43.149Z,100830.53
2022-08-16T15:40:57.584Z,100835.59
2022-08-16T15:46:34.600Z,100835.31
2022-08-16T15:51:47.643Z,100840.34
2022-08-16T15:56:55.478Z,100842.31
2022-08-16T16:01:58.549Z,100845.16
2022-08-16T16:07:00.375Z,100831.66
2022-08-16T16:12:12.020Z,100827.97
2022-08-16T16:17:26.500Z,100824.88
2022-08-16T16:22:38.239Z,100822.09
2022-08-16T16:27:43.296Z,100823.22
2022-08-16T16:32:45.130Z,100821.81
2022-08-16T16:37:47.079Z,100832.78
2022-08-16T16:42:53.040Z,100834.47
2022-08-16T16:47:55.168Z,100835.84
2022-08-16T16:53:17.076Z,100837.28
2022-08-16T16:58:43.206Z,100846.69
2022-08-16T17:03:46.306Z,100859.63
2022-08-16T17:08:56.135Z,100856.78
2022-08-16T17:13:58.245Z,100856.47
2022-08-16T17:19:17.094Z,100844.66
2022-08-16T17:24:33.241Z,100846.56
2022-08-16T17:36:36.597Z,100847.41
2022-08-16T17:41:39.193Z,100834.19
2022-08-16T17:46:50.706Z,100822.41
2022-08-16T17:51:54.386Z,100840.13
2022-08-16T17:57:00.869Z,100848.81
2022-08-16T18:02:42.154Z,100857.16
2022-08-16T18:07:24.821Z,100854.38
2022-08-16T18:12:51.029Z,100855.44
2022-08-16T18:17:53.364Z,100861.63
2022-08-16T18:23:01.789Z,100854.84
2022-08-16T18:28:03.973Z,100843.00
2022-08-16T18:33:05.975Z,100839.44
2022-08-16T18:38:07.753Z,100836.84
2022-08-16T18:43:13.930Z,100831.25
2022-08-16T18:48:17.880Z,100829.47
2022-08-16T18:53:21.893Z,100823.81
2022-08-16T18:58:24.405Z,100824.94
2022-08-16T19:03:30.245Z,100821.59
2022-08-16T19:08:34.882Z,100828.56
2022-08-16T19:13:40.516Z,100839.50
2022-08-16T19:18:42.651Z,100843.88
2022-08-16T19:23:45.320Z,100850.22
2022-08-16T19:28:58.896Z,100858.44
2022-08-16T19:34:04.561Z,100878.38
2022-08-16T19:39:10.514Z,100875.03
2022-08-16T19:44:12.881Z,100892.25
2022-08-16T19:49:16.212Z,100906.59
2022-08-16T19:54:18.593Z,100916.75
2022-08-16T19:59:39.887Z,100908.28
2022-08-16T20:04:42.669Z,100919.28
2022-08-16T20:09:45.037Z,100912.50
2022-08-16T20:14:47.661Z,100914.63
2022-08-16T20:19:49.508Z,100918.44
2022-08-16T20:24:51.897Z,100929.19
2022-08-16T20:29:55.301Z,100943.28
2022-08-16T20:34:57.074Z,100947.25
2022-08-16T20:40:28.423Z,100943.84
2022-08-16T20:45:26.989Z,100936.56
2022-08-16T20:50:29.778Z,100929.19
2022-08-16T20:55:34.882Z,100944.06
2022-08-16T21:00:37.236Z,100947.38
2022-08-16T21:05:39.360Z,100946.81
2022-08-16T21:10:41.124Z,100948.38
2022-08-16T21:15:43.435Z,100950.28
2022-08-16T21:20:45.058Z,100960.41
2022-08-16T21:25:57.914Z,100959.81
2022-08-16T21:31:00.744Z,100961.44
2022-08-16T21:41:55.383Z,100960.84
2022-08-16T21:46:57.700Z,100975.16
2022-08-16T21:52:26.161Z,100975.41
2022-08-16T21:57:35.419Z,100968.63
2022-08-16T22:02:39.120Z,100970.50
2022-08-16T22:13:26.481Z,100972.72
2022-08-16T22:18:28.186Z,100964.81
2022-08-16T22:23:31.917Z,100959.72
2022-08-16T22:28:33.603Z,100952.34
2022-08-16T22:33:35.211Z,100942.75
2022-08-16T22:38:53.976Z,100948.72
2022-08-16T22:43:59.575Z,100938.00
2022-08-16T22:49:01.343Z,100942.25
2022-08-16T22:54:44.375Z,100941.72
2022-08-16T22:59:25.710Z,100941.81
2022-08-16T23:04:27.376Z,100940.13
2022-08-16T23:09:29.058Z,100941.97
2022-08-16T23:14:30.712Z,100949.50
2022-08-16T23:19:32.301Z,100929.09
2022-08-16T23:24:37.251Z,100936.81
2022-08-16T23:29:55.816Z,100940.56
2022-08-16T23:34:58.451Z,100936.16
2022-08-16T23:40:00.280Z,100937.34
2022-08-16T23:45:02.036Z,100923.91
2022-08-16T23:50:04.435Z,100925.28
2022-08-16T23:55:06.500Z,100917.91
